Time;durP1;ratioP1;P1;durP2;ratioP2;P2;SDS_P1;SDS_P2;PMS_P1;PMS_P2;Temp;Humidity;BMP_temperature;BMP_pressure;BME280_temperature;BME280_humidity;BME280_pressure;Samples;Min_cycle;Max_cycle;Signal;HPM_P1;HPM_P2
2022/09/11 00:00:42;;;;;;;0.43;0.30;;;13.60;99.90;;;;;;5099636;28;20449;-85
2022/09/11 00:03:10;;;;;;;0.67;0.37;;;13.60;99.90;;;;;;5099913;27;20477;-84
2022/09/11 00:05:39;;;;;;;0.40;0.40;;;13.60;99.90;;;;;;5100582;27;20821;-82
2022/09/11 00:08:06;;;;;;;0.70;0.30;;;13.60;99.90;;;;;;5104876;28;21033;-83
2022/09/11 00:10:36;;;;;;;0.47;0.30;;;13.60;99.90;;;;;;5107106;28;20444;-85
2022/09/11 00:13:04;;;;;;;1.10;0.40;;;13.60;99.90;;;;;;5105858;27;20530;-83
2022/09/11 00:15:36;;;;;;;0.83;0.40;;;13.50;99.90;;;;;;5101717;27;20477;-83
2022/09/11 00:18:04;;;;;;;0.50;0.30;;;13.50;99.90;;;;;;5104161;28;20506;-83
2022/09/11 00:20:32;;;;;;;0.50;0.30;;;13.50;99.90;;;;;;5103608;28;20466;-85
2022/09/11 00:23:01;;;;;;;1.07;0.20;;;13.40;99.90;;;;;;5100419;28;20516;-83
2022/09/11 00:25:28;;;;;;;1.07;0.40;;;13.40;99.90;;;;;;5108462;28;20471;-82
2022/09/11 00:27:56;;;;;;;0.50;0.40;;;13.30;99.90;;;;;;5114806;28;20505;-82
2022/09/11 00:30:23;;;;;;;0.40;0.30;;;13.30;99.90;;;;;;5118721;28;20521;-83
2022/09/11 00:32:51;;;;;;;0.80;0.40;;;13.30;99.90;;;;;;5126428;27;20474;-82
2022/09/11 00:35:18;;;;;;;0.40;0.30;;;13.30;99.90;;;;;;5113610;27;20809;-83
2022/09/11 00:37:45;;;;;;;0.50;0.27;;;13.40;99.90;;;;;;5106783;27;20466;-82
2022/09/11 00:40:14;;;;;;;0.60;0.40;;;13.30;99.90;;;;;;5106544;28;20546;-83
2022/09/11 00:42:41;;;;;;;1.03;0.60;;;13.30;99.90;;;;;;5104160;28;20469;-84
2022/09/11 00:45:16;;;;;;;0.40;0.30;;;13.40;99.90;;;;;;5106603;27;20523;-83
2022/09/11 00:47:44;;;;;;;0.43;0.30;;;13.40;99.90;;;;;;5105904;28;21035;-83
2022/09/11 00:50:14;;;;;;;0.60;0.30;;;13.40;99.90;;;;;;5099419;27;20553;-82
2022/09/11 00:52:45;;;;;;;0.70;0.43;;;13.50;99.90;;;;;;5102069;28;20480;-82
2022/09/11 00:55:17;;;;;;;0.40;0.30;;;13.50;99.90;;;;;;5105682;27;20469;-85
2022/09/11 00:57:48;;;;;;;0.67;0.40;;;13.40;99.90;;;;;;5104642;28;20461;-84
2022/09/11 01:00:16;;;;;;;0.40;0.40;;;13.40;99.90;;;;;;5103137;28;20457;-81
2022/09/11 01:02:46;;;;;;;0.43;0.30;;;13.50;99.90;;;;;;5098284;28;20471;-83
2022/09/11 01:05:16;;;;;;;0.50;0.40;;;13.50;99.90;;;;;;5103846;27;21048;-85
2022/09/11 01:07:45;;;;;;;0.50;0.40;;;13.50;99.90;;;;;;5099966;28;20469;-83
2022/09/11 01:10:13;;;;;;;0.40;0.40;;;13.60;99.90;;;;;;5104407;27;20816;-82
2022/09/11 01:12:48;;;;;;;1.07;0.40;;;13.60;99.90;;;;;;5099198;27;21149;-83
2022/09/11 01:15:21;;;;;;;2.10;0.47;;;13.60;99.90;;;;;;5101587;28;20452;-84
2022/09/11 01:17:57;;;;;;;0.50;0.50;;;13.60;99.90;;;;;;5104202;28;20450;-83
2022/09/11 01:20:37;;;;;;;0.40;0.40;;;13.60;99.90;;;;;;5105030;28;20568;-82
2022/09/11 01:23:33;;;;;;;0.47;0.40;;;13.60;99.90;;;;;;5102832;28;20469;-85
2022/09/11 01:26:33;;;;;;;1.40;0.40;;;13.60;99.90;;;;;;5096840;27;20970;-82
2022/09/11 01:29:09;;;;;;;0.50;0.40;;;13.60;99.90;;;;;;5083773;28;20603;-84
2022/09/11 01:31:44;;;;;;;0.50;0.40;;;13.60;99.90;;;;;;5095302;28;20461;-82
2022/09/11 01:34:20;;;;;;;0.40;0.30;;;13.50;99.90;;;;;;5101850;27;20497;-85
2022/09/11 01:37:02;;;;;;;0.50;0.40;;;13.50;99.90;;;;;;5100320;27;20467;-84
2022/09/11 01:39:34;;;;;;;1.10;0.40;;;13.50;99.90;;;;;;5098324;28;20470;-80
2022/09/11 01:42:04;;;;;;;0.70;0.50;;;13.50;99.90;;;;;;5096483;28;20533;-82
2022/09/11 01:44:36;;;;;;;2.43;0.43;;;13.50;99.90;;;;;;5101261;28;20452;-81
2022/09/11 01:47:06;;;;;;;1.50;0.40;;;13.50;99.90;;;;;;5101863;28;20458;-83
2022/09/11 01:49:37;;;;;;;1.17;0.67;;;13.60;99.90;;;;;;5101710;27;20467;-83
2022/09/11 01:52:08;;;;;;;2.60;0.50;;;13.50;99.90;;;;;;5100361;27;20437;-84
2022/09/11 01:54:41;;;;;;;0.40;0.30;;;13.50;99.90;;;;;;5103131;28;20530;-82
2022/09/11 01:57:12;;;;;;;0.50;0.30;;;13.50;99.90;;;;;;5101003;27;20537;-84
2022/09/11 01:59:46;;;;;;;0.40;0.30;;;13.40;99.90;;;;;;5094005;28;20465;-82
2022/09/11 02:02:19;;;;;;;0.50;0.30;;;13.40;99.90;;;;;;5103528;28;20477;-84
2022/09/11 02:04:50;;;;;;;0.40;0.30;;;13.40;99.90;;;;;;5104956;28;20519;-84
2022/09/11 02:07:21;;;;;;;0.50;0.40;;;13.30;99.90;;;;;;5099723;28;20469;-84
2022/09/11 02:09:54;;;;;;;0.40;0.30;;;13.30;99.90;;;;;;5102789;28;20445;-81
2022/09/11 02:12:27;;;;;;;2.00;1.50;;;13.20;99.90;;;;;;5103816;28;20472;-85
2022/09/11 02:14:56;;;;;;;0.60;0.40;;;13.20;99.90;;;;;;5098498;28;20519;-83
2022/09/11 02:17:33;;;;;;;0.63;0.40;;;13.20;99.90;;;;;;5095289;28;20474;-82
2022/09/11 02:20:01;;;;;;;0.40;0.30;;;13.10;99.90;;;;;;5099408;28;20526;-82
2022/09/11 02:22:28;;;;;;;0.40;0.30;;;13.10;99.90;;;;;;5101845;28;20524;-85
2022/09/11 02:24:55;;;;;;;0.40;0.30;;;13.10;99.90;;;;;;5100362;28;20506;-82
2022/09/11 02:27:26;;;;;;;0.53;0.43;;;13.20;99.90;;;;;;5097035;28;20998;-82
2022/09/11 02:29:55;;;;;;;0.60;0.50;;;13.20;99.90;;;;;;5099181;28;20533;-84
2022/09/11 02:32:22;;;;;;;0.63;0.30;;;13.20;99.90;;;;;;5099336;28;21591;-82
2022/09/11 02:34:51;;;;;;;0.57;0.30;;;13.20;99.90;;;;;;5101206;28;20469;-83
2022/09/11 02:37:30;;;;;;;0.40;0.30;;;13.20;99.90;;;;;;5102408;28;20518;-82
2022/09/11 02:40:29;;;;;;;0.50;0.30;;;13.20;99.90;;;;;;5101218;28;20457;-83
2022/09/11 02:43:17;;;;;;;4.10;0.40;;;13.20;99.90;;;;;;5077585;28;20453;-82
2022/09/11 02:45:55;;;;;;;0.40;0.30;;;13.30;99.90;;;;;;5096110;28;20468;-84
2022/09/11 02:48:42;;;;;;;0.50;0.30;;;13.40;99.90;;;;;;5101422;28;20465;-81
2022/09/11 02:51:18;;;;;;;0.70;0.50;;;13.40;99.90;;;;;;5101413;28;20456;-83
2022/09/11 02:53:54;;;;;;;1.47;0.50;;;13.40;99.90;;;;;;5100367;28;20485;-82
2022/09/11 02:56:28;;;;;;;1.20;0.50;;;13.40;99.90;;;;;;5098682;28;20458;-82
2022/09/11 02:59:00;;;;;;;0.40;0.30;;;13.40;99.90;;;;;;5095660;28;20485;-82
2022/09/11 03:01:30;;;;;;;0.50;0.33;;;13.40;99.90;;;;;;5098554;28;20801;-82
2022/09/11 03:03:57;;;;;;;1.43;0.30;;;13.40;99.90;;;;;;5103279;28;20485;-82
2022/09/11 03:06:26;;;;;;;0.50;0.37;;;13.40;99.90;;;;;;5100298;28;20550;-83
2022/09/11 03:08:53;;;;;;;0.73;0.30;;;13.40;99.90;;;;;;5097254;28;21175;-80
2022/09/11 03:11:20;;;;;;;0.30;0.20;;;13.40;99.90;;;;;;5097698;28;20449;-84
2022/09/11 03:13:47;;;;;;;0.80;0.33;;;13.40;99.90;;;;;;5101467;28;21171;-81
2022/09/11 03:16:14;;;;;;;0.87;0.30;;;13.30;99.90;;;;;;5102331;27;20518;-84
2022/09/11 03:18:42;;;;;;;7.13;0.40;;;13.30;99.90;;;;;;5094260;28;20443;-81
2022/09/11 03:21:10;;;;;;;0.40;0.30;;;13.30;99.90;;;;;;5105450;27;20465;-81
2022/09/11 03:23:38;;;;;;;0.60;0.40;;;13.30;99.90;;;;;;5098873;27;20464;-82
2022/09/11 03:26:04;;;;;;;1.53;0.33;;;13.30;99.90;;;;;;5105174;28;20452;-83
2022/09/11 03:28:32;;;;;;;0.47;0.37;;;13.30;99.90;;;;;;5107655;28;20471;-83
2022/09/11 03:30:59;;;;;;;0.40;0.30;;;13.40;99.90;;;;;;5109248;28;20441;-82
2022/09/11 03:33:26;;;;;;;0.40;0.30;;;13.40;99.90;;;;;;5112852;28;20491;-83
2022/09/11 03:35:55;;;;;;;0.40;0.20;;;13.50;99.90;;;;;;5118580;28;20443;-82
2022/09/11 03:38:22;;;;;;;0.70;0.50;;;13.50;99.90;;;;;;5132108;28;20453;-80
2022/09/11 03:40:49;;;;;;;0.50;0.40;;;13.50;99.90;;;;;;5127952;28;20888;-83
2022/09/11 03:43:16;;;;;;;0.77;0.40;;;13.50;99.90;;;;;;5110472;28;20454;-81
2022/09/11 03:45:44;;;;;;;0.40;0.30;;;13.50;99.90;;;;;;5107535;27;20473;-82
2022/09/11 03:48:11;;;;;;;0.40;0.30;;;13.50;99.90;;;;;;5108473;27;20481;-80
2022/09/11 03:50:38;;;;;;;0.40;0.30;;;13.50;99.90;;;;;;5105652;27;20461;-82
2022/09/11 03:53:06;;;;;;;0.50;0.40;;;13.50;99.90;;;;;;5098721;28;20540;-81
2022/09/11 03:55:33;;;;;;;0.50;0.47;;;13.50;99.90;;;;;;5107919;28;20444;-82
2022/09/11 03:58:00;;;;;;;0.90;0.37;;;13.50;99.90;;;;;;5099032;28;20484;-81
2022/09/11 04:00:27;;;;;;;0.40;0.30;;;13.50;99.90;;;;;;5102053;28;20943;-81
2022/09/11 04:02:55;;;;;;;0.57;0.50;;;13.50;99.90;;;;;;5102484;28;21119;-80
2022/09/11 04:05:24;;;;;;;0.40;0.40;;;13.50;99.90;;;;;;5106100;27;20832;-79
2022/09/11 04:07:52;;;;;;;0.40;0.20;;;13.50;99.90;;;;;;5105511;28;20516;-81
2022/09/11 04:10:21;;;;;;;0.60;0.30;;;13.50;99.90;;;;;;5101149;28;20551;-81
2022/09/11 04:12:48;;;;;;;0.40;0.30;;;13.50;99.90;;;;;;5104171;28;20501;-81
2022/09/11 04:15:15;;;;;;;0.40;0.30;;;13.50;99.90;;;;;;5103049;27;20530;-82
2022/09/11 04:17:42;;;;;;;0.40;0.30;;;13.60;99.90;;;;;;5104941;28;20570;-82
2022/09/11 04:20:10;;;;;;;0.60;0.30;;;13.60;99.90;;;;;;5104844;28;20450;-82
2022/09/11 04:22:38;;;;;;;0.40;0.30;;;13.60;99.90;;;;;;5103147;28;20530;-82
2022/09/11 04:25:06;;;;;;;0.50;0.30;;;13.60;99.90;;;;;;5103233;27;20461;-82
2022/09/11 04:27:34;;;;;;;0.40;0.30;;;13.50;99.90;;;;;;5105668;28;20468;-79
2022/09/11 04:30:01;;;;;;;0.30;0.20;;;13.60;99.90;;;;;;5105898;28;20569;-80
2022/09/11 04:32:29;;;;;;;0.60;0.50;;;13.50;99.90;;;;;;5102849;27;20470;-79
2022/09/11 04:34:56;;;;;;;0.30;0.20;;;13.50;99.90;;;;;;5104759;27;20517;-81
2022/09/11 04:37:23;;;;;;;0.40;0.30;;;13.50;99.90;;;;;;5094795;28;20533;-80
2022/09/11 04:39:49;;;;;;;0.40;0.30;;;13.40;99.90;;;;;;5101271;28;21246;-82
2022/09/11 04:42:16;;;;;;;0.93;0.30;;;13.40;99.90;;;;;;5103098;27;20511;-80
2022/09/11 04:44:45;;;;;;;1.27;0.50;;;13.30;99.90;;;;;;5100976;27;20568;-80
2022/09/11 04:47:12;;;;;;;0.57;0.33;;;13.30;99.90;;;;;;5103599;28;20584;-81
2022/09/11 04:49:39;;;;;;;3.37;0.40;;;13.30;99.90;;;;;;5099964;28;20447;-82
2022/09/11 04:52:06;;;;;;;0.50;0.30;;;13.20;99.90;;;;;;5105042;28;20465;-80
2022/09/11 04:54:35;;;;;;;0.50;0.40;;;13.20;99.90;;;;;;5103270;28;20538;-81
2022/09/11 04:57:03;;;;;;;0.50;0.40;;;13.20;99.90;;;;;;5101815;27;20458;-81
2022/09/11 04:59:30;;;;;;;0.87;0.40;;;13.20;99.90;;;;;;5104080;28;20545;-80
2022/09/11 05:01:58;;;;;;;0.40;0.30;;;13.30;99.90;;;;;;5099223;28;20450;-79
2022/09/11 05:04:25;;;;;;;0.80;0.40;;;13.30;99.90;;;;;;5101803;28;20450;-82
2022/09/11 05:06:52;;;;;;;0.40;0.20;;;13.30;99.90;;;;;;5102728;27;21767;-79
2022/09/11 05:09:19;;;;;;;0.70;0.60;;;13.30;99.90;;;;;;5103299;28;20511;-81
2022/09/11 05:11:46;;;;;;;0.37;0.27;;;13.30;99.90;;;;;;5103696;28;20449;-82
2022/09/11 05:14:14;;;;;;;0.60;0.30;;;13.40;99.90;;;;;;5101394;28;20527;-81
2022/09/11 05:16:42;;;;;;;0.60;0.40;;;13.40;99.90;;;;;;5101584;28;20461;-80
2022/09/11 05:19:10;;;;;;;0.40;0.30;;;13.30;99.90;;;;;;5103061;28;21142;-80
2022/09/11 05:21:38;;;;;;;3.00;0.40;;;13.40;99.90;;;;;;5104838;27;20445;-80
2022/09/11 05:24:05;;;;;;;0.40;0.33;;;13.40;99.90;;;;;;5101492;28;20546;-82
2022/09/11 05:26:34;;;;;;;0.40;0.30;;;13.40;99.90;;;;;;5103357;28;20525;-80
2022/09/11 05:29:03;;;;;;;0.40;0.30;;;13.40;99.90;;;;;;5098118;28;21184;-82
2022/09/11 05:31:30;;;;;;;0.50;0.40;;;13.40;99.90;;;;;;5100948;27;20470;-81
2022/09/11 05:33:59;;;;;;;0.40;0.30;;;13.40;99.90;;;;;;5098927;28;20549;-80
2022/09/11 05:36:29;;;;;;;0.50;0.50;;;13.50;99.90;;;;;;5101873;28;20540;-80
2022/09/11 05:38:58;;;;;;;1.23;0.53;;;13.50;99.90;;;;;;5100692;27;20546;-80
2022/09/11 05:41:25;;;;;;;0.40;0.30;;;13.60;99.90;;;;;;5094708;28;20997;-82
2022/09/11 05:43:53;;;;;;;0.70;0.60;;;13.60;99.90;;;;;;5097979;28;20469;-83
2022/09/11 05:46:21;;;;;;;1.90;0.60;;;13.60;99.90;;;;;;5106890;27;20485;-81
2022/09/11 05:48:48;;;;;;;4.17;3.57;;;13.60;99.90;;;;;;5104989;28;20529;-81
2022/09/11 05:51:17;;;;;;;10.10;4.00;;;13.70;99.90;;;;;;5118871;27;20980;-81
2022/09/11 05:53:46;;;;;;;3.40;0.93;;;13.70;99.90;;;;;;5105834;28;20959;-80
2022/09/11 05:56:15;;;;;;;0.73;0.70;;;13.70;99.90;;;;;;5102082;28;20474;-84
2022/09/11 05:58:42;;;;;;;0.60;0.40;;;13.70;99.90;;;;;;5105683;28;21193;-81
2022/09/11 06:01:11;;;;;;;3.90;0.70;;;13.70;99.90;;;;;;5106509;28;20482;-80
2022/09/11 06:03:38;;;;;;;0.80;0.50;;;13.80;99.90;;;;;;5105952;28;21035;-80
2022/09/11 06:06:07;;;;;;;0.40;0.40;;;13.80;99.90;;;;;;5106855;28;21052;-81
2022/09/11 06:08:35;;;;;;;0.67;0.60;;;13.80;99.90;;;;;;5106290;28;20469;-80
2022/09/11 06:11:06;;;;;;;1.83;0.50;;;14.00;99.90;;;;;;5106124;28;20502;-83
2022/09/11 06:13:37;;;;;;;0.97;0.40;;;14.10;99.90;;;;;;5106651;28;20592;-81
2022/09/11 06:16:04;;;;;;;0.50;0.40;;;14.20;99.90;;;;;;5106374;28;20469;-79
2022/09/11 06:18:32;;;;;;;1.03;0.90;;;14.40;99.90;;;;;;5105714;28;20522;-80
2022/09/11 06:21:00;;;;;;;1.43;0.47;;;14.60;99.90;;;;;;5105218;28;20453;-81
2022/09/11 06:23:28;;;;;;;0.70;0.40;;;14.60;99.90;;;;;;5103815;28;20544;-80
2022/09/11 06:26:04;;;;;;;0.40;0.30;;;14.70;99.90;;;;;;5105784;28;20991;-80
2022/09/11 06:28:31;;;;;;;2.20;0.43;;;14.70;99.90;;;;;;5106529;28;20450;-80
2022/09/11 06:30:58;;;;;;;0.40;0.30;;;14.70;99.90;;;;;;5106406;28;20536;-80
2022/09/11 06:33:25;;;;;;;0.77;0.43;;;14.60;99.90;;;;;;5097312;28;21141;-81
2022/09/11 06:35:58;;;;;;;0.40;0.30;;;14.60;99.90;;;;;;5097494;28;20543;-80
2022/09/11 06:38:25;;;;;;;0.50;0.50;;;14.70;99.90;;;;;;5105495;28;20469;-80
2022/09/11 06:40:53;;;;;;;0.50;0.30;;;14.60;99.90;;;;;;5117357;28;20439;-81
2022/09/11 06:43:21;;;;;;;3.33;0.50;;;14.50;99.90;;;;;;5117734;28;20464;-77
2022/09/11 06:45:48;;;;;;;0.73;0.50;;;14.50;99.90;;;;;;5126204;28;20454;-80
2022/09/11 06:48:15;;;;;;;0.50;0.33;;;14.30;99.90;;;;;;5121585;28;20970;-79
2022/09/11 06:50:43;;;;;;;0.80;0.40;;;14.30;99.90;;;;;;5115642;27;20456;-82
2022/09/11 06:53:11;;;;;;;0.60;0.40;;;14.40;99.90;;;;;;5106559;28;20462;-82
2022/09/11 06:55:39;;;;;;;0.60;0.33;;;14.40;99.90;;;;;;5106544;28;20479;-79
2022/09/11 06:58:07;;;;;;;1.40;0.40;;;14.50;99.90;;;;;;5104670;28;20461;-81
2022/09/11 07:00:36;;;;;;;0.57;0.40;;;14.50;99.90;;;;;;5109459;27;20985;-80
2022/09/11 07:03:03;;;;;;;0.60;0.60;;;14.50;99.90;;;;;;5107652;28;20563;-83
2022/09/11 07:05:30;;;;;;;0.50;0.40;;;14.40;99.90;;;;;;5110205;27;21107;-81
2022/09/11 07:07:58;;;;;;;0.93;0.37;;;14.40;99.90;;;;;;5102085;27;20488;-83
2022/09/11 07:10:25;;;;;;;0.50;0.30;;;14.40;99.90;;;;;;5106241;28;21430;-83
2022/09/11 07:12:53;;;;;;;0.40;0.40;;;14.40;99.90;;;;;;5102684;27;21020;-82
2022/09/11 07:15:21;;;;;;;0.70;0.50;;;14.40;99.90;;;;;;5098694;27;20495;-81
2022/09/11 07:17:50;;;;;;;0.50;0.50;;;14.40;99.90;;;;;;5096652;27;20576;-82
2022/09/11 07:20:17;;;;;;;0.43;0.40;;;14.50;99.90;;;;;;5100598;27;20468;-82
2022/09/11 07:22:45;;;;;;;0.50;0.40;;;14.50;99.90;;;;;;5103575;28;20459;-82
2022/09/11 07:25:13;;;;;;;0.40;0.33;;;14.60;99.90;;;;;;5099256;27;20453;-81
2022/09/11 07:27:40;;;;;;;0.50;0.40;;;14.60;99.90;;;;;;5097712;27;20455;-82
2022/09/11 07:30:08;;;;;;;0.60;0.40;;;14.60;99.90;;;;;;5104736;27;20481;-82
2022/09/11 07:32:36;;;;;;;1.67;0.50;;;14.70;99.90;;;;;;5104584;27;20464;-82
2022/09/11 07:35:06;;;;;;;0.63;0.40;;;14.70;99.90;;;;;;5098657;27;20490;-81
2022/09/11 07:37:32;;;;;;;0.40;0.40;;;14.90;99.90;;;;;;5099945;27;20456;-82
2022/09/11 07:40:00;;;;;;;0.40;0.20;;;14.80;99.90;;;;;;5104442;27;20489;-81
2022/09/11 07:42:27;;;;;;;0.40;0.33;;;14.90;99.90;;;;;;5099241;28;20470;-81
2022/09/11 07:44:54;;;;;;;3.90;0.50;;;14.90;99.90;;;;;;5102477;27;20479;-81
2022/09/11 07:47:21;;;;;;;0.50;0.30;;;14.90;99.90;;;;;;5102546;27;20518;-79
2022/09/11 07:49:49;;;;;;;0.40;0.30;;;14.90;99.90;;;;;;5097116;28;20464;-80
2022/09/11 07:52:19;;;;;;;0.40;0.30;;;14.80;99.90;;;;;;5105265;27;20468;-82
2022/09/11 07:54:47;;;;;;;1.17;0.30;;;14.70;99.90;;;;;;5095659;28;20983;-81
2022/09/11 07:57:14;;;;;;;0.50;0.30;;;14.80;99.90;;;;;;5096702;27;20552;-82
2022/09/11 07:59:40;;;;;;;1.03;0.30;;;14.90;99.90;;;;;;5096714;28;20517;-81
2022/09/11 08:02:10;;;;;;;0.40;0.30;;;15.00;99.90;;;;;;5103933;28;20459;-79
2022/09/11 08:04:37;;;;;;;0.97;0.30;;;15.10;99.90;;;;;;5103440;27;21009;-81
2022/09/11 08:07:05;;;;;;;2.10;0.33;;;15.20;99.90;;;;;;5102291;27;21020;-82
2022/09/11 08:09:33;;;;;;;1.80;0.30;;;15.50;99.90;;;;;;5099724;27;20781;-81
2022/09/11 08:12:01;;;;;;;0.40;0.30;;;15.70;99.90;;;;;;5103698;28;20459;-79
2022/09/11 08:14:30;;;;;;;0.40;0.27;;;15.80;99.90;;;;;;5100877;28;20481;-80
2022/09/11 08:16:57;;;;;;;0.50;0.40;;;15.90;99.90;;;;;;5101732;28;20513;-80
2022/09/11 08:19:24;;;;;;;0.50;0.40;;;16.20;99.90;;;;;;5100439;28;20557;-79
2022/09/11 08:21:52;;;;;;;1.27;0.30;;;16.40;99.90;;;;;;5100040;27;20536;-79
2022/09/11 08:24:20;;;;;;;0.37;0.30;;;16.50;99.90;;;;;;5101028;28;20504;-80
2022/09/11 08:26:49;;;;;;;0.40;0.40;;;16.60;99.90;;;;;;5102322;28;20491;-81
2022/09/11 08:29:17;;;;;;;1.17;0.30;;;16.50;99.90;;;;;;5099510;28;20488;-82
2022/09/11 08:31:44;;;;;;;0.40;0.30;;;16.20;99.90;;;;;;5102441;28;21291;-79
2022/09/11 08:34:11;;;;;;;0.80;0.40;;;15.90;99.90;;;;;;5112838;27;20914;-81
2022/09/11 08:36:38;;;;;;;0.40;0.37;;;15.50;99.90;;;;;;5106559;27;20471;-79
2022/09/11 08:39:05;;;;;;;0.50;0.40;;;15.50;99.90;;;;;;5099175;27;20523;-80
2022/09/11 08:41:39;;;;;;;0.40;0.30;;;15.40;99.90;;;;;;5103766;27;20535;-80
2022/09/11 08:44:16;;;;;;;0.43;0.33;;;15.50;99.90;;;;;;5099936;28;20469;-82
2022/09/11 08:46:46;;;;;;;1.43;0.30;;;15.70;99.90;;;;;;5092580;27;20457;-79
2022/09/11 08:49:20;;;;;;;0.40;0.30;;;15.70;99.90;;;;;;5104333;28;20454;-82
2022/09/11 08:51:48;;;;;;;0.40;0.30;;;15.60;99.90;;;;;;5093897;28;20499;-82
2022/09/11 08:54:26;;;;;;;0.80;0.40;;;15.60;99.90;;;;;;5096431;28;20828;-80
2022/09/11 08:57:04;;;;;;;1.00;0.40;;;15.40;99.90;;;;;;5110374;27;20463;-82
2022/09/11 08:59:45;;;;;;;0.50;0.37;;;15.10;99.90;;;;;;5103674;27;20466;-80
2022/09/11 09:02:30;;;;;;;0.60;0.30;;;14.90;99.90;;;;;;5102596;27;20520;-79
2022/09/11 09:05:13;;;;;;;0.90;0.30;;;14.50;99.90;;;;;;5100527;27;20514;-82
2022/09/11 09:07:51;;;;;;;0.43;0.40;;;14.40;99.90;;;;;;5094709;28;20458;-80
2022/09/11 09:10:31;;;;;;;1.20;0.40;;;14.30;99.90;;;;;;5097234;27;20461;-82
2022/09/11 09:13:09;;;;;;;0.70;0.40;;;14.30;99.90;;;;;;5099833;28;20513;-82
2022/09/11 09:15:47;;;;;;;0.50;0.37;;;14.20;99.90;;;;;;5097405;28;20543;-82
2022/09/11 09:18:22;;;;;;;0.60;0.40;;;14.10;99.90;;;;;;5099362;28;20461;-80
2022/09/11 09:21:00;;;;;;;1.80;0.60;;;14.10;99.90;;;;;;5102782;27;20468;-82
2022/09/11 09:23:32;;;;;;;0.40;0.30;;;14.00;99.90;;;;;;5097226;28;20537;-80
2022/09/11 09:25:59;;;;;;;0.40;0.30;;;14.00;99.90;;;;;;5109927;27;20553;-81
2022/09/11 09:28:34;;;;;;;0.93;0.30;;;14.00;99.90;;;;;;5094523;28;20679;-81
2022/09/11 09:31:06;;;;;;;0.47;0.30;;;14.00;99.90;;;;;;5056034;28;21215;-81
2022/09/11 09:33:35;;;;;;;0.50;0.30;;;13.90;99.90;;;;;;5056645;28;20460;-79
2022/09/11 09:36:13;;;;;;;0.50;0.33;;;14.00;99.90;;;;;;5057780;28;20491;-79
2022/09/11 09:38:40;;;;;;;0.70;0.40;;;14.00;99.90;;;;;;5061511;28;20472;-82
2022/09/11 09:41:33;;;;;;;0.50;0.50;;;14.10;99.90;;;;;;5058738;28;20537;-80
2022/09/11 09:44:05;;;;;;;0.93;0.70;;;14.00;99.90;;;;;;5060219;28;20459;-82
2022/09/11 09:46:41;;;;;;;0.70;0.47;;;14.00;99.90;;;;;;5080837;28;20488;-80
2022/09/11 09:49:09;;;;;;;1.23;0.40;;;14.10;99.90;;;;;;5084879;28;20473;-80
2022/09/11 09:51:38;;;;;;;0.40;0.40;;;14.20;99.90;;;;;;5079131;28;20518;-81
2022/09/11 09:54:06;;;;;;;0.40;0.40;;;14.00;99.90;;;;;;5065219;28;20783;-81
2022/09/11 09:56:36;;;;;;;1.47;0.40;;;14.10;99.90;;;;;;5065618;28;20489;-84
2022/09/11 09:59:14;;;;;;;0.50;0.40;;;14.10;99.90;;;;;;5061038;28;20464;-82
2022/09/11 10:01:49;;;;;;;4.40;0.90;;;14.20;99.90;;;;;;5059430;28;20460;-82
2022/09/11 10:04:20;;;;;;;1.17;0.40;;;14.30;99.90;;;;;;5060525;28;20467;-82
2022/09/11 10:06:49;;;;;;;3.70;0.57;;;14.30;99.90;;;;;;5061718;28;21036;-82
2022/09/11 10:09:25;;;;;;;0.50;0.40;;;14.50;99.90;;;;;;5062744;28;20463;-82
2022/09/11 10:11:54;;;;;;;0.40;0.33;;;14.60;99.90;;;;;;5057297;28;20507;-80
2022/09/11 10:14:23;;;;;;;0.50;0.33;;;15.00;99.90;;;;;;5065293;28;20550;-83
2022/09/11 10:16:52;;;;;;;0.50;0.40;;;15.40;99.90;;;;;;5059214;28;20494;-81
2022/09/11 10:19:41;;;;;;;0.40;0.30;;;15.80;99.90;;;;;;5066138;28;20490;-81
2022/09/11 10:22:26;;;;;;;0.83;0.83;;;15.70;99.90;;;;;;5059177;28;20449;-82
2022/09/11 10:25:11;;;;;;;0.60;0.50;;;15.60;99.90;;;;;;5059951;28;20465;-83
2022/09/11 10:27:52;;;;;;;0.60;0.50;;;15.40;99.90;;;;;;5056394;28;20450;-84
2022/09/11 10:30:32;;;;;;;0.60;0.50;;;15.20;99.90;;;;;;5100116;27;20985;-83
2022/09/11 10:33:03;;;;;;;0.40;0.37;;;15.20;99.90;;;;;;5110344;27;20443;-82
2022/09/11 10:35:33;;;;;;;0.50;0.40;;;15.10;99.90;;;;;;5105744;27;20573;-81
2022/09/11 10:38:17;;;;;;;0.70;0.40;;;15.30;99.90;;;;;;5121585;27;20472;-84
2022/09/11 10:40:57;;;;;;;0.50;0.43;;;15.70;99.90;;;;;;5106126;28;20455;-83
2022/09/11 10:43:31;;;;;;;0.60;0.50;;;15.90;99.90;;;;;;5105323;28;20461;-81
2022/09/11 10:46:04;;;;;;;0.63;0.43;;;15.80;99.90;;;;;;5107212;28;20465;-81
2022/09/11 10:48:32;;;;;;;0.50;0.40;;;15.80;99.90;;;;;;5108664;28;20460;-80
2022/09/11 10:51:11;;;;;;;0.97;0.40;;;15.70;99.90;;;;;;5109205;27;21181;-80
2022/09/11 10:53:48;;;;;;;0.50;0.37;;;15.50;99.90;;;;;;5101543;27;20452;-80
2022/09/11 10:56:16;;;;;;;0.50;0.50;;;15.60;99.90;;;;;;5099509;27;20490;-82
2022/09/11 10:58:47;;;;;;;0.63;0.50;;;15.40;99.90;;;;;;5105130;27;20486;-82
2022/09/11 11:01:15;;;;;;;0.80;0.50;;;15.30;99.90;;;;;;5095266;27;20520;-84
2022/09/11 11:03:43;;;;;;;2.83;0.50;;;15.40;99.90;;;;;;5095603;28;20922;-82
2022/09/11 11:06:25;;;;;;;0.60;0.50;;;15.50;99.90;;;;;;5096005;28;20522;-83
2022/09/11 11:09:07;;;;;;;0.60;0.40;;;15.60;99.90;;;;;;5106213;27;20540;-81
2022/09/11 11:11:49;;;;;;;0.63;0.60;;;15.60;99.90;;;;;;5096169;28;20469;-84
2022/09/11 11:14:55;;;;;;;0.50;0.50;;;15.60;99.90;;;;;;5100465;28;20446;-84
2022/09/11 11:17:30;;;;;;;0.93;0.67;;;15.30;99.90;;;;;;5084763;28;20480;-86
2022/09/11 11:20:30;;;;;;;0.50;0.50;;;15.10;99.90;;;;;;5094703;27;20490;-83
2022/09/11 11:23:23;;;;;;;0.50;0.50;;;15.00;99.90;;;;;;5086452;28;20450;-81
2022/09/11 11:26:04;;;;;;;0.60;0.60;;;14.90;99.90;;;;;;5097711;28;21104;-83
2022/09/11 11:28:53;;;;;;;1.13;0.70;;;14.80;99.90;;;;;;5101845;27;20445;-83
2022/09/11 11:31:34;;;;;;;1.23;0.57;;;14.90;99.90;;;;;;5099812;28;21047;-82
2022/09/11 11:34:16;;;;;;;0.60;0.60;;;15.00;99.90;;;;;;5101579;28;20510;-84
2022/09/11 11:36:48;;;;;;;1.20;0.60;;;15.10;99.90;;;;;;5096805;28;20524;-83
2022/09/11 11:39:24;;;;;;;2.33;0.90;;;15.10;99.90;;;;;;5098386;27;20442;-82
2022/09/11 11:42:03;;;;;;;0.53;0.50;;;15.20;99.90;;;;;;5105918;27;20532;-81
2022/09/11 11:44:37;;;;;;;0.50;0.40;;;15.20;99.90;;;;;;5092231;28;20522;-84
2022/09/11 11:47:08;;;;;;;1.67;0.70;;;15.30;99.90;;;;;;5097956;27;20452;-84
2022/09/11 11:49:47;;;;;;;1.73;0.70;;;15.40;99.90;;;;;;5097308;27;20467;-81
2022/09/11 11:52:26;;;;;;;0.50;0.50;;;15.40;99.90;;;;;;5096841;27;20468;-82
2022/09/11 11:54:59;;;;;;;0.80;0.80;;;15.50;99.90;;;;;;5098463;27;20934;-82
2022/09/11 11:57:33;;;;;;;0.77;0.70;;;15.70;99.90;;;;;;5095364;27;20490;-83
2022/09/11 12:00:06;;;;;;;0.73;0.60;;;16.00;99.90;;;;;;5098508;27;20477;-84
2022/09/11 12:02:42;;;;;;;0.90;0.87;;;16.10;99.90;;;;;;5099409;27;20934;-84
2022/09/11 12:05:13;;;;;;;1.00;0.90;;;16.30;99.90;;;;;;5097910;28;20464;-82
2022/09/11 12:07:41;;;;;;;2.30;0.73;;;16.40;99.90;;;;;;5101672;28;20468;-82
2022/09/11 12:10:21;;;;;;;0.80;0.70;;;16.40;99.90;;;;;;5098320;27;20458;-82
2022/09/11 12:12:52;;;;;;;1.27;1.00;;;16.90;99.90;;;;;;5101189;27;20458;-81
2022/09/11 12:15:21;;;;;;;0.60;0.60;;;17.20;99.90;;;;;;5099601;27;21172;-83
2022/09/11 12:17:59;;;;;;;0.70;0.67;;;17.30;99.90;;;;;;5100457;27;20466;-82
2022/09/11 12:20:33;;;;;;;0.60;0.53;;;17.20;99.90;;;;;;5100326;27;20468;-83
2022/09/11 12:23:00;;;;;;;0.50;0.50;;;17.10;99.90;;;;;;5102809;27;20566;-82
2022/09/11 12:26:03;;;;;;;1.13;0.60;;;17.00;99.90;;;;;;5102241;27;20858;-85
2022/09/11 12:28:30;;;;;;;0.60;0.50;;;17.20;99.90;;;;;;5095579;27;20560;-83
2022/09/11 12:31:00;;;;;;;1.83;0.60;;;17.10;99.90;;;;;;5101392;27;20493;-84
2022/09/11 12:33:53;;;;;;;0.50;0.50;;;17.00;99.90;;;;;;5103891;28;20474;-82
2022/09/11 12:36:29;;;;;;;0.50;0.40;;;17.20;99.90;;;;;;5103291;27;20478;-82
2022/09/11 12:39:00;;;;;;;0.53;0.53;;;17.60;99.90;;;;;;5107258;27;20465;-82
2022/09/11 12:41:30;;;;;;;0.60;0.50;;;18.30;99.90;;;;;;5099716;28;20470;-81
2022/09/11 12:43:58;;;;;;;0.63;0.60;;;18.80;99.90;;;;;;5094948;28;20550;-84
2022/09/11 12:47:09;;;;;;;0.53;0.50;;;18.90;99.90;;;;;;5098096;27;20495;-84
2022/09/11 12:49:36;;;;;;;1.00;0.50;;;18.30;99.90;;;;;;5103752;27;20461;-83
2022/09/11 12:52:03;;;;;;;0.63;0.47;;;18.00;99.90;;;;;;5109502;27;20458;-82
2022/09/11 12:54:38;;;;;;;0.70;0.60;;;18.00;99.90;;;;;;5111299;27;20468;-82
2022/09/11 12:57:11;;;;;;;0.57;0.57;;;18.10;99.90;;;;;;5128237;27;20481;-85
2022/09/11 12:59:42;;;;;;;0.60;0.50;;;18.20;99.90;;;;;;5128062;27;20442;-83
2022/09/11 13:02:25;;;;;;;0.60;0.40;;;18.00;99.90;;;;;;5105086;27;20463;-81
2022/09/11 13:04:52;;;;;;;0.50;0.50;;;17.80;99.90;;;;;;5108015;27;20472;-80
2022/09/11 13:07:30;;;;;;;0.50;0.40;;;17.50;99.90;;;;;;5101795;27;21116;-80
2022/09/11 13:10:06;;;;;;;0.50;0.50;;;17.30;99.90;;;;;;5097804;27;20479;-81